Time;durP1;ratioP1;P1;durP2;ratioP2;P2;SDS_P1;SDS_P2;PMS_P1;PMS_P2;Temp;Humidity;BMP_temperature;BMP_pressure;BME280_temperature;BME280_humidity;BME280_pressure;Samples;Min_cycle;Max_cycle;Signal;HPM_P1;HPM_P2
2023/11/28 00:01:03;;;;;;;14.43;8.10;;;0.50;99.90;;;;;;5080474;28;20210;-77
2023/11/28 00:03:30;;;;;;;14.30;7.83;;;0.50;99.90;;;;;;5080932;28;20313;-78
2023/11/28 00:05:57;;;;;;;14.87;9.33;;;0.50;99.90;;;;;;5071384;28;20210;-78
2023/11/28 00:08:27;;;;;;;16.00;9.53;;;0.50;99.90;;;;;;5075063;28;20261;-79
2023/11/28 00:10:54;;;;;;;16.27;9.80;;;0.50;99.90;;;;;;5081730;28;20712;-79
2023/11/28 00:13:21;;;;;;;14.27;8.60;;;0.50;99.90;;;;;;5075396;28;20213;-78
2023/11/28 00:15:47;;;;;;;14.73;9.40;;;0.50;99.90;;;;;;5074474;28;20201;-78
2023/11/28 00:18:14;;;;;;;13.87;8.37;;;0.50;99.90;;;;;;5079758;28;20222;-78
2023/11/28 00:20:41;;;;;;;15.80;9.67;;;0.40;99.90;;;;;;5076518;28;20223;-80
2023/11/28 00:23:08;;;;;;;14.90;8.50;;;0.40;99.90;;;;;;5081506;28;20198;-80
2023/11/28 00:25:36;;;;;;;14.50;8.33;;;0.50;99.90;;;;;;5077588;28;20270;-80
2023/11/28 00:28:03;;;;;;;14.70;9.53;;;0.40;99.90;;;;;;5083772;28;20250;-80
2023/11/28 00:30:30;;;;;;;13.80;9.13;;;0.40;99.90;;;;;;5077299;28;20225;-80
2023/11/28 00:32:57;;;;;;;16.83;9.30;;;0.40;99.90;;;;;;5083432;28;20571;-79
2023/11/28 00:35:23;;;;;;;12.93;8.00;;;0.70;99.90;;;;;;5082176;28;20206;-78
2023/11/28 00:37:50;;;;;;;13.40;7.67;;;0.40;99.90;;;;;;5084815;28;20258;-78
2023/11/28 00:40:18;;;;;;;10.53;6.87;;;0.40;99.90;;;;;;5082448;28;20207;-79
2023/11/28 00:42:47;;;;;;;12.97;8.33;;;0.40;99.90;;;;;;5083706;28;20642;-78
2023/11/28 00:45:14;;;;;;;14.17;8.43;;;0.40;99.90;;;;;;5084147;28;20238;-79
2023/11/28 00:47:43;;;;;;;15.93;9.73;;;0.40;99.90;;;;;;5084067;28;20307;-79
2023/11/28 00:50:10;;;;;;;14.83;9.53;;;0.40;99.90;;;;;;5083316;28;20218;-78
2023/11/28 00:52:37;;;;;;;14.23;8.70;;;0.40;99.90;;;;;;5075419;28;20209;-78
2023/11/28 00:55:04;;;;;;;14.83;9.70;;;0.40;99.90;;;;;;5077724;28;20404;-78
2023/11/28 00:57:31;;;;;;;15.60;9.77;;;0.40;99.90;;;;;;5084042;28;20260;-78
2023/11/28 00:59:59;;;;;;;16.30;9.63;;;0.40;99.90;;;;;;5077444;28;20202;-78
2023/11/28 01:02:26;;;;;;;15.03;9.43;;;0.40;99.90;;;;;;5080981;28;20213;-78
2023/11/28 01:04:53;;;;;;;13.10;8.00;;;0.40;99.90;;;;;;5082449;28;20610;-78
2023/11/28 01:07:20;;;;;;;14.97;9.57;;;0.40;99.90;;;;;;5081197;28;20203;-81
2023/11/28 01:09:48;;;;;;;18.37;11.50;;;0.40;99.90;;;;;;5087831;28;20202;-80
2023/11/28 01:12:14;;;;;;;14.70;10.00;;;0.40;99.90;;;;;;5082554;28;20317;-80
2023/11/28 01:14:41;;;;;;;15.23;9.57;;;0.40;99.90;;;;;;5081627;28;20285;-78
2023/11/28 01:17:09;;;;;;;12.40;9.00;;;0.40;99.90;;;;;;5082266;28;20206;-80
2023/11/28 01:19:38;;;;;;;15.53;9.37;;;0.40;99.90;;;;;;5083622;28;20227;-81
2023/11/28 01:22:06;;;;;;;15.40;9.97;;;0.40;99.90;;;;;;5081895;28;20281;-80
2023/11/28 01:24:33;;;;;;;16.33;10.87;;;0.40;99.90;;;;;;5081579;28;20203;-79
2023/11/28 01:27:00;;;;;;;14.93;9.67;;;0.40;99.90;;;;;;5073482;28;20289;-79
2023/11/28 01:29:27;;;;;;;15.03;9.90;;;0.40;99.90;;;;;;5079803;28;20697;-80
2023/11/28 01:31:54;;;;;;;14.83;9.97;;;0.40;99.90;;;;;;5078958;28;20254;-79
2023/11/28 01:34:22;;;;;;;12.77;8.23;;;0.40;99.90;;;;;;5075153;28;20199;-78
2023/11/28 01:36:49;;;;;;;13.87;9.40;;;0.30;99.90;;;;;;5081600;28;20713;-78
2023/11/28 01:39:16;;;;;;;14.17;8.80;;;0.30;99.90;;;;;;5086696;28;20301;-78
2023/11/28 01:41:47;;;;;;;11.17;7.60;;;0.50;99.90;;;;;;5084172;28;20208;-78
2023/11/28 01:44:13;;;;;;;15.47;10.03;;;0.90;99.90;;;;;;5073477;28;20227;-77
2023/11/28 01:46:41;;;;;;;12.13;8.77;;;0.30;99.90;;;;;;5078474;28;20278;-80
2023/11/28 01:49:08;;;;;;;10.93;7.53;;;0.30;99.90;;;;;;5087578;28;20257;-81
2023/11/28 01:51:37;;;;;;;11.10;8.10;;;0.30;99.90;;;;;;5076518;28;20732;-79
2023/11/28 01:54:07;;;;;;;12.20;7.53;;;0.40;99.90;;;;;;5074122;28;20234;-79
2023/11/28 01:56:36;;;;;;;12.30;7.57;;;0.40;99.90;;;;;;5080334;28;20217;-79
2023/11/28 01:59:05;;;;;;;15.73;9.33;;;0.30;99.90;;;;;;5081804;28;20697;-78
2023/11/28 02:01:32;;;;;;;12.53;7.57;;;0.40;99.90;;;;;;5073736;28;20254;-78
2023/11/28 02:03:59;;;;;;;11.63;7.40;;;0.40;99.90;;;;;;5082127;28;20198;-80
2023/11/28 02:06:26;;;;;;;11.97;7.13;;;0.40;99.90;;;;;;5082288;28;20203;-81
2023/11/28 02:08:54;;;;;;;10.27;6.93;;;0.30;99.90;;;;;;5086780;28;20226;-81
2023/11/28 02:11:22;;;;;;;12.10;7.30;;;0.40;99.90;;;;;;5077976;28;20218;-79
2023/11/28 02:13:49;;;;;;;12.67;6.30;;;0.40;99.90;;;;;;5069190;28;20552;-81
2023/11/28 02:16:17;;;;;;;12.30;7.73;;;0.40;99.90;;;;;;5081752;28;20226;-79
2023/11/28 02:18:44;;;;;;;13.30;8.17;;;0.30;99.90;;;;;;5075626;28;20229;-79
2023/11/28 02:21:12;;;;;;;11.30;7.00;;;0.40;99.90;;;;;;5077613;28;20212;-78
2023/11/28 02:23:39;;;;;;;12.30;7.87;;;0.40;99.90;;;;;;5073702;28;20236;-78
2023/11/28 02:26:23;;;;;;;10.90;6.97;;;0.40;99.90;;;;;;5076226;28;20214;-78
2023/11/28 02:28:50;;;;;;;11.93;7.87;;;0.40;99.90;;;;;;5082027;28;20222;-77
2023/11/28 02:31:17;;;;;;;12.13;7.50;;;0.30;99.90;;;;;;5075740;28;20240;-79
2023/11/28 02:33:44;;;;;;;12.70;7.27;;;0.40;99.90;;;;;;5073044;28;20202;-77
2023/11/28 02:36:11;;;;;;;11.37;7.03;;;0.40;99.90;;;;;;5071917;28;20202;-77
2023/11/28 02:38:38;;;;;;;12.30;7.00;;;0.40;99.90;;;;;;5078420;28;20308;-80
2023/11/28 02:41:05;;;;;;;12.77;7.40;;;0.40;99.90;;;;;;5073879;28;20202;-79
2023/11/28 02:43:33;;;;;;;10.30;6.70;;;0.40;99.90;;;;;;5071142;28;20202;-79
2023/11/28 02:46:00;;;;;;;10.37;6.83;;;0.40;99.90;;;;;;5084475;28;20285;-80
2023/11/28 02:48:27;;;;;;;13.30;8.13;;;0.40;99.90;;;;;;5080342;28;20222;-78
2023/11/28 02:50:54;;;;;;;12.90;7.87;;;0.40;99.90;;;;;;5082338;28;20256;-79
2023/11/28 02:53:21;;;;;;;14.00;8.37;;;0.40;99.90;;;;;;5086243;28;20265;-79
2023/11/28 02:55:48;;;;;;;14.43;8.63;;;0.40;99.90;;;;;;5081574;28;20209;-80
2023/11/28 02:58:15;;;;;;;15.70;8.83;;;0.40;99.90;;;;;;5077822;28;20218;-79
2023/11/28 03:00:43;;;;;;;12.77;6.70;;;0.40;99.90;;;;;;5082484;28;20201;-80
2023/11/28 03:03:10;;;;;;;14.13;8.07;;;0.40;99.90;;;;;;5081288;28;20213;-80
2023/11/28 03:05:36;;;;;;;15.63;9.13;;;0.40;99.90;;;;;;5082162;28;20293;-80
2023/11/28 03:08:04;;;;;;;14.90;9.10;;;0.40;99.90;;;;;;5083288;28;20234;-79
2023/11/28 03:10:30;;;;;;;14.87;8.57;;;0.40;99.90;;;;;;5066555;28;20210;-80
2023/11/28 03:12:57;;;;;;;15.07;9.10;;;0.40;99.90;;;;;;5081415;28;20222;-78
2023/11/28 03:15:24;;;;;;;13.97;8.63;;;0.40;99.90;;;;;;5082112;28;20262;-78
2023/11/28 03:17:52;;;;;;;14.20;8.67;;;0.50;99.90;;;;;;5074840;28;20667;-78
2023/11/28 03:20:19;;;;;;;15.50;9.10;;;0.30;99.90;;;;;;5081447;28;20207;-80
2023/11/28 03:22:46;;;;;;;16.80;9.00;;;0.40;99.90;;;;;;5076706;28;20205;-79
2023/11/28 03:25:13;;;;;;;14.77;8.87;;;0.40;99.90;;;;;;5082675;28;20205;-80
2023/11/28 03:27:40;;;;;;;14.30;8.40;;;0.40;99.90;;;;;;5080286;28;20272;-79
2023/11/28 03:30:08;;;;;;;14.87;9.13;;;0.40;99.90;;;;;;5072658;28;20208;-79
2023/11/28 03:32:35;;;;;;;13.33;8.47;;;0.40;99.90;;;;;;5079305;28;20222;-77
2023/11/28 03:35:03;;;;;;;14.53;8.73;;;0.30;99.90;;;;;;5071720;28;20202;-78
2023/11/28 03:37:30;;;;;;;15.27;8.83;;;0.30;99.90;;;;;;5068740;28;20685;-78
2023/11/28 03:39:57;;;;;;;13.90;9.00;;;0.30;99.90;;;;;;5082259;28;20207;-80
2023/11/28 03:42:23;;;;;;;14.00;7.80;;;0.60;99.90;;;;;;5082249;28;20194;-78
2023/11/28 03:44:50;;;;;;;13.40;7.63;;;0.30;99.90;;;;;;5080240;28;20202;-81
2023/11/28 03:47:17;;;;;;;13.77;8.67;;;0.30;99.90;;;;;;5085245;28;20209;-80
2023/11/28 03:49:44;;;;;;;13.57;8.60;;;0.30;99.90;;;;;;5080924;28;20580;-80
2023/11/28 03:52:12;;;;;;;17.40;9.83;;;0.30;99.90;;;;;;5080586;28;20761;-80
2023/11/28 03:54:39;;;;;;;14.27;7.93;;;0.30;99.90;;;;;;5083939;28;20202;-79
2023/11/28 03:57:06;;;;;;;13.40;8.07;;;0.30;99.90;;;;;;5079938;28;20211;-79
2023/11/28 03:59:33;;;;;;;15.03;8.53;;;0.30;99.90;;;;;;5084057;28;20312;-77
2023/11/28 04:02:00;;;;;;;14.63;8.23;;;0.30;99.90;;;;;;5079702;28;20567;-79
2023/11/28 04:04:27;;;;;;;13.90;7.90;;;0.30;99.90;;;;;;5079537;28;20198;-80
2023/11/28 04:06:54;;;;;;;14.10;8.37;;;0.40;99.90;;;;;;5084988;28;20554;-79
2023/11/28 04:09:22;;;;;;;14.33;8.07;;;0.40;99.90;;;;;;5082845;28;20254;-78
2023/11/28 04:11:49;;;;;;;12.83;7.97;;;0.40;99.90;;;;;;5078455;28;20301;-80
2023/11/28 04:14:17;;;;;;;13.53;7.73;;;0.40;99.90;;;;;;5090536;28;20198;-78
2023/11/28 04:16:43;;;;;;;15.23;8.43;;;0.40;99.90;;;;;;5083996;28;20199;-79
2023/11/28 04:19:10;;;;;;;14.93;8.03;;;0.40;99.90;;;;;;5083228;28;20245;-79
2023/11/28 04:21:37;;;;;;;14.07;7.60;;;0.40;99.90;;;;;;5076964;28;20198;-79
2023/11/28 04:24:04;;;;;;;15.87;8.43;;;0.40;99.90;;;;;;5086592;28;20202;-78
2023/11/28 04:26:32;;;;;;;16.77;8.73;;;0.30;99.90;;;;;;5082736;28;20210;-79
2023/11/28 04:28:59;;;;;;;12.63;8.00;;;0.30;99.90;;;;;;5070866;28;20223;-80
2023/11/28 04:31:26;;;;;;;14.57;8.17;;;0.30;99.90;;;;;;5079536;28;20217;-80
2023/11/28 04:33:53;;;;;;;16.67;8.20;;;0.30;99.90;;;;;;5080937;28;20271;-83
2023/11/28 04:36:19;;;;;;;14.37;7.90;;;0.30;99.90;;;;;;5077732;28;20252;-81
2023/11/28 04:38:46;;;;;;;15.07;8.73;;;0.30;99.90;;;;;;5073576;28;20230;-80
2023/11/28 04:41:14;;;;;;;15.47;8.20;;;0.30;99.90;;;;;;5074320;28;20198;-79
2023/11/28 04:43:42;;;;;;;15.30;8.73;;;0.30;99.90;;;;;;5079021;28;20212;-80
2023/11/28 04:46:09;;;;;;;16.47;8.57;;;0.30;99.90;;;;;;5077143;28;20573;-80
2023/11/28 04:48:36;;;;;;;15.20;8.13;;;0.30;99.90;;;;;;5082303;28;20218;-81
2023/11/28 04:51:03;;;;;;;15.73;9.37;;;0.30;99.90;;;;;;5082879;28;20228;-81
2023/11/28 04:53:30;;;;;;;14.53;7.93;;;0.20;99.90;;;;;;5080733;28;20199;-78
2023/11/28 04:55:56;;;;;;;15.57;9.20;;;0.20;99.90;;;;;;5070679;28;20293;-80
2023/11/28 04:58:23;;;;;;;17.03;9.70;;;0.20;99.90;;;;;;5069965;28;20301;-79
2023/11/28 05:00:51;;;;;;;16.27;8.40;;;0.20;99.90;;;;;;5072599;28;20210;-79
2023/11/28 05:03:18;;;;;;;15.47;9.00;;;0.20;99.90;;;;;;5072128;28;20264;-80
2023/11/28 05:05:48;;;;;;;17.13;9.03;;;0.20;99.90;;;;;;5073186;28;20287;-79
2023/11/28 05:08:15;;;;;;;17.13;9.00;;;0.20;99.90;;;;;;5081051;28;20218;-80
2023/11/28 05:10:42;;;;;;;19.50;9.53;;;0.20;99.90;;;;;;5070845;28;20210;-80
2023/11/28 05:13:10;;;;;;;16.07;9.10;;;0.20;99.90;;;;;;5073288;28;20229;-81
2023/11/28 05:15:37;;;;;;;17.87;8.67;;;0.20;99.90;;;;;;5069555;28;20238;-82
2023/11/28 05:18:09;;;;;;;16.43;8.60;;;0.20;99.90;;;;;;5075614;28;20712;-81
2023/11/28 05:20:36;;;;;;;17.27;8.80;;;0.20;99.90;;;;;;5068142;28;20206;-81
2023/11/28 05:23:03;;;;;;;15.97;9.37;;;0.20;99.90;;;;;;5080041;28;20195;-80
2023/11/28 05:25:29;;;;;;;15.57;8.47;;;0.20;99.90;;;;;;5082517;28;20202;-81
2023/11/28 05:27:56;;;;;;;15.17;7.93;;;0.20;99.90;;;;;;5075736;28;20218;-81
2023/11/28 05:30:23;;;;;;;14.50;8.20;;;0.20;99.90;;;;;;5074538;28;20260;-81
2023/11/28 05:32:50;;;;;;;21.73;8.10;;;0.20;29.20;;;;;;5073012;28;20218;-81
2023/11/28 05:35:18;;;;;;;15.90;9.30;;;0.10;1.00;;;;;;5080199;28;20297;-81
2023/11/28 05:37:45;;;;;;;18.93;8.57;;;0.10;99.90;;;;;;5071659;28;20231;-79
2023/11/28 05:40:12;;;;;;;15.83;7.73;;;0.10;99.90;;;;;;5073363;28;20205;-77
2023/11/28 05:42:39;;;;;;;15.67;8.53;;;0.00;99.90;;;;;;5070593;28;20203;-78
2023/11/28 05:45:07;;;;;;;18.40;7.93;;;0.00;28.40;;;;;;5075860;28;20221;-79
2023/11/28 05:47:34;;;;;;;15.63;7.93;;;0.00;1.00;;;;;;5079109;28;20265;-79
2023/11/28 05:50:02;;;;;;;15.07;7.13;;;0.00;1.00;;;;;;5074035;28;20216;-84
2023/11/28 05:52:30;;;;;;;14.70;7.17;;;0.00;1.00;;;;;;5081556;28;20220;-81
2023/11/28 05:54:57;;;;;;;15.63;7.60;;;0.00;99.90;;;;;;5071312;28;20669;-79
2023/11/28 05:57:24;;;;;;;19.20;7.80;;;0.00;99.90;;;;;;5073154;28;20209;-77
2023/11/28 05:59:51;;;;;;;20.03;8.77;;;0.00;1.00;;;;;;5073577;28;20523;-80
2023/11/28 06:02:18;;;;;;;14.73;7.93;;;0.00;1.00;;;;;;5072980;28;20256;-79
2023/11/28 06:04:44;;;;;;;17.17;7.87;;;0.00;1.00;;;;;;5073979;28;20212;-81
2023/11/28 06:07:11;;;;;;;18.53;8.60;;;0.00;1.00;;;;;;5070800;28;20203;-79
2023/11/28 06:09:40;;;;;;;14.20;7.33;;;0.00;1.00;;;;;;5074180;28;20245;-78
2023/11/28 06:12:07;;;;;;;15.70;7.30;;;-0.10;99.90;;;;;;5076833;28;20287;-79
2023/11/28 06:14:34;;;;;;;16.77;8.00;;;-0.10;1.00;;;;;;5078386;28;20560;-80
2023/11/28 06:17:01;;;;;;;12.97;7.13;;;0.00;1.00;;;;;;5076335;28;20194;-79
2023/11/28 06:19:28;;;;;;;15.07;7.57;;;0.00;99.90;;;;;;5072989;28;20230;-79
2023/11/28 06:21:54;;;;;;;13.90;7.40;;;0.20;1.00;;;;;;5073166;28;20677;-81
2023/11/28 06:24:21;;;;;;;14.17;6.60;;;0.00;99.90;;;;;;5086534;28;20261;-78
2023/11/28 06:26:49;;;;;;;12.03;6.60;;;0.00;99.90;;;;;;5086029;28;20675;-81
2023/11/28 06:29:16;;;;;;;15.50;6.40;;;0.00;1.00;;;;;;5079384;28;20690;-80
2023/11/28 06:31:43;;;;;;;12.50;6.30;;;-0.10;1.00;;;;;;5086163;28;20201;-78
2023/11/28 06:34:10;;;;;;;13.17;6.63;;;-0.10;1.00;;;;;;5081038;28;20214;-78
2023/11/28 06:36:36;;;;;;;10.70;6.40;;;-0.20;1.00;;;;;;5078133;28;20226;-80
2023/11/28 06:39:04;;;;;;;14.17;6.90;;;-0.20;99.90;;;;;;5076287;28;20215;-80
2023/11/28 06:41:31;;;;;;;11.57;6.40;;;-0.20;99.90;;;;;;5080084;28;20198;-79
2023/11/28 06:43:59;;;;;;;14.00;5.73;;;-0.20;99.90;;;;;;5078336;28;20198;-83
2023/11/28 06:46:27;;;;;;;11.60;5.83;;;-0.30;1.00;;;;;;5077206;28;20198;-81
2023/11/28 06:48:53;;;;;;;10.47;5.53;;;-0.30;1.00;;;;;;5077969;28;20230;-81
2023/11/28 06:51:20;;;;;;;13.27;6.07;;;-0.30;1.00;;;;;;5079970;28;20198;-80
2023/11/28 06:53:47;;;;;;;10.23;5.97;;;-0.30;1.00;;;;;;5077778;28;20596;-82
2023/11/28 06:56:14;;;;;;;11.07;5.80;;;-0.30;99.90;;;;;;5074366;28;20207;-80
2023/11/28 06:58:42;;;;;;;14.07;6.77;;;-0.30;99.90;;;;;;5076054;28;20232;-81
2023/11/28 07:01:11;;;;;;;10.60;6.17;;;-0.20;1.00;;;;;;5077096;28;20236;-81
2023/11/28 07:03:38;;;;;;;12.30;5.80;;;-0.30;1.00;;;;;;5077110;28;20608;-82
2023/11/28 07:06:06;;;;;;;13.17;6.10;;;-0.30;99.90;;;;;;5079521;28;20198;-81
2023/11/28 07:08:34;;;;;;;10.07;5.43;;;-0.20;1.00;;;;;;5082084;28;20218;-80
2023/11/28 07:11:01;;;;;;;11.27;5.50;;;-0.30;99.90;;;;;;5080084;28;20745;-80
2023/11/28 07:13:27;;;;;;;8.17;4.70;;;-0.30;1.00;;;;;;5072332;28;20594;-82
2023/11/28 07:15:54;;;;;;;9.47;5.07;;;-0.30;99.90;;;;;;5072289;28;20646;-81
2023/11/28 07:18:22;;;;;;;8.80;5.10;;;-0.30;99.90;;;;;;5078807;28;20308;-81
2023/11/28 07:20:51;;;;;;;11.63;5.30;;;-0.30;1.00;;;;;;5069609;28;20236;-80
2023/11/28 07:23:17;;;;;;;9.83;4.77;;;-0.30;1.00;;;;;;5085099;28;20198;-81
2023/11/28 07:25:45;;;;;;;8.53;5.10;;;-0.30;1.00;;;;;;5076168;28;20644;-80
2023/11/28 07:28:12;;;;;;;10.47;5.07;;;-0.30;99.90;;;;;;5082492;28;20308;-80
2023/11/28 07:30:38;;;;;;;10.90;5.27;;;-0.30;1.00;;;;;;5081310;28;20214;-81
2023/11/28 07:33:05;;;;;;;8.50;4.50;;;-0.30;99.90;;;;;;5081776;28;20228;-82
2023/11/28 07:35:33;;;;;;;7.77;4.83;;;-0.30;1.00;;;;;;5083323;28;20206;-80
2023/11/28 07:37:59;;;;;;;7.40;4.20;;;-0.30;1.00;;;;;;5079343;28;20249;-81
2023/11/28 07:40:28;;;;;;;7.87;4.07;;;-0.30;1.00;;;;;;5076228;28;20198;-81
2023/11/28 07:42:55;;;;;;;8.03;4.20;;;-0.30;1.00;;;;;;5080677;28;20198;-83
2023/11/28 07:45:22;;;;;;;7.27;4.07;;;-0.30;1.00;;;;;;5082623;28;20204;-81
2023/11/28 07:47:49;;;;;;;6.80;4.13;;;-0.30;99.90;;;;;;5080277;28;20222;-80
2023/11/28 07:50:16;;;;;;;7.83;4.40;;;-0.30;1.00;;;;;;5075057;28;20213;-82
2023/11/28 07:52:44;;;;;;;7.80;4.10;;;-0.30;99.90;;;;;;5081495;28;20221;-81
2023/11/28 07:55:11;;;;;;;6.27;3.37;;;-0.30;99.90;;;;;;5079912;28;20285;-82
2023/11/28 07:57:38;;;;;;;6.60;3.63;;;-0.30;1.00;;;;;;5079947;28;20228;-81
2023/11/28 08:00:07;;;;;;;8.90;4.20;;;-0.30;99.90;;;;;;5072308;28;20210;-81
2023/11/28 08:02:34;;;;;;;6.70;3.70;;;-0.30;99.90;;;;;;5080580;28;20198;-81
2023/11/28 08:05:02;;;;;;;7.17;3.83;;;-0.40;99.90;;;;;;5078812;28;20210;-80
2023/11/28 08:07:29;;;;;;;6.97;4.13;;;-0.30;1.00;;;;;;5079557;28;20209;-79
2023/11/28 08:09:58;;;;;;;7.37;4.63;;;-0.40;99.90;;;;;;5080896;28;20202;-80
2023/11/28 08:12:25;;;;;;;7.77;4.50;;;-0.40;99.90;;;;;;5080507;28;20689;-80
2023/11/28 08:14:52;;;;;;;5.97;3.40;;;-0.40;99.90;;;;;;5080546;28;20209;-81
2023/11/28 08:17:19;;;;;;;5.77;3.67;;;-0.40;99.90;;;;;;5073324;28;20191;-80
2023/11/28 08:19:46;;;;;;;6.33;3.70;;;-0.40;1.00;;;;;;5075003;28;20209;-81
2023/11/28 08:22:12;;;;;;;6.20;3.50;;;-0.40;99.90;;;;;;5074582;28;20209;-82
2023/11/28 08:24:39;;;;;;;7.73;4.07;;;-0.40;99.90;;;;;;5078510;28;20209;-82
2023/11/28 08:27:08;;;;;;;7.70;4.03;;;-0.40;1.00;;;;;;5075002;28;20199;-82
2023/11/28 08:29:35;;;;;;;9.13;3.93;;;-0.40;99.90;;;;;;5078048;28;20226;-83
2023/11/28 08:32:01;;;;;;;6.07;3.57;;;-0.40;99.90;;;;;;5075888;28;20558;-83
2023/11/28 08:34:28;;;;;;;4.67;3.10;;;-0.50;1.00;;;;;;5075315;28;20225;-81
2023/11/28 08:36:55;;;;;;;7.00;3.57;;;-0.50;1.00;;;;;;5078870;28;20264;-83
2023/11/28 08:39:23;;;;;;;6.23;4.00;;;-0.60;1.00;;;;;;5069217;28;20236;-83
2023/11/28 08:41:50;;;;;;;8.23;3.77;;;-0.70;1.00;;;;;;5081463;28;20210;-80
2023/11/28 08:44:18;;;;;;;5.53;3.80;;;-0.80;1.00;;;;;;5083255;28;20233;-80
2023/11/28 08:46:45;;;;;;;5.27;3.40;;;-0.80;1.00;;;;;;5081582;28;20581;-80
2023/11/28 08:49:12;;;;;;;7.67;3.37;;;-0.90;99.90;;;;;;5082109;28;20218;-80
2023/11/28 08:51:40;;;;;;;8.73;3.60;;;-0.90;1.00;;;;;;5081178;28;20214;-80
2023/11/28 08:54:07;;;;;;;5.63;3.57;;;-0.90;1.00;;;;;;5080032;28;20253;-79
2023/11/28 08:56:34;;;;;;;7.07;3.63;;;-0.90;1.00;;;;;;5079053;28;20670;-80
2023/11/28 08:59:00;;;;;;;5.50;3.50;;;-0.90;1.00;;;;;;5080706;28;20290;-79
2023/11/28 09:01:29;;;;;;;7.20;3.90;;;-0.90;1.00;;;;;;5079490;28;20208;-81
2023/11/28 09:03:55;;;;;;;6.93;3.67;;;-0.60;99.90;;;;;;5081519;28;20285;-82
2023/11/28 09:06:22;;;;;;;6.50;3.67;;;-0.50;99.90;;;;;;5080732;28;20198;-82
2023/11/28 09:08:49;;;;;;;8.17;4.00;;;-0.30;33.20;;;;;;5083273;28;20668;-80
2023/11/28 09:11:16;;;;;;;6.50;3.77;;;-0.20;1.00;;;;;;5077659;28;20198;-83
2023/11/28 09:13:43;;;;;;;6.27;3.80;;;0.30;1.00;;;;;;5081518;28;20218;-82
2023/11/28 09:16:12;;;;;;;6.33;3.50;;;0.50;99.90;;;;;;5080616;28;20278;-81
2023/11/28 09:18:40;;;;;;;5.43;3.03;;;0.50;99.90;;;;;;5076070;28;20222;-82
2023/11/28 09:21:08;;;;;;;5.77;3.57;;;0.40;99.90;;;;;;5078260;28;20199;-82
2023/11/28 09:23:35;;;;;;;4.23;2.60;;;1.30;1.00;;;;;;5073580;28;20252;-82
2023/11/28 09:26:02;;;;;;;4.53;3.10;;;0.90;1.00;;;;;;5074618;28;20203;-81
2023/11/28 09:28:29;;;;;;;3.83;2.80;;;0.60;83.70;;;;;;5067164;28;20344;-81
2023/11/28 09:30:55;;;;;;;5.40;3.07;;;0.20;99.90;;;;;;5080220;28;20211;-80
2023/11/28 09:33:22;;;;;;;5.03;2.80;;;0.10;99.90;;;;;;5076636;28;20664;-79
2023/11/28 09:35:50;;;;;;;4.23;3.03;;;0.10;99.90;;;;;;5077640;28;20665;-80
2023/11/28 09:38:17;;;;;;;3.63;2.60;;;0.10;99.90;;;;;;5067953;28;20218;-79
2023/11/28 09:40:44;;;;;;;4.53;3.00;;;0.20;99.90;;;;;;5078375;28;20285;-79
2023/11/28 09:43:11;;;;;;;3.67;2.70;;;0.20;99.90;;;;;;5071295;28;20210;-79
2023/11/28 09:45:41;;;;;;;4.63;2.83;;;0.30;99.90;;;;;;5066079;28;20217;-80
2023/11/28 09:48:10;;;;;;;5.00;2.77;;;0.30;99.90;;;;;;5061274;28;20226;-79
2023/11/28 09:50:39;;;;;;;4.97;2.67;;;0.30;99.90;;;;;;5079948;28;20212;-82
2023/11/28 09:53:08;;;;;;;4.93;2.60;;;0.30;1.00;;;;;;5082227;28;20226;-82
2023/11/28 09:55:35;;;;;;;5.40;3.07;;;0.30;1.00;;;;;;5081245;28;20202;-81
2023/11/28 09:58:05;;;;;;;3.90;2.40;;;0.30;1.00;;;;;;5081027;28;20727;-80
2023/11/28 10:00:34;;;;;;;5.10;2.80;;;0.30;1.00;;;;;;5082660;28;20198;-82
2023/11/28 10:03:02;;;;;;;3.13;2.23;;;0.20;1.00;;;;;;5082978;28;20206;-82
2023/11/28 10:05:29;;;;;;;4.23;2.60;;;0.20;1.00;;;;;;5079606;28;20198;-82
2023/11/28 10:07:57;;;;;;;2.43;2.20;;;0.40;1.00;;;;;;5080966;28;20228;-82
2023/11/28 10:10:25;;;;;;;3.33;2.20;;;0.40;1.00;;;;;;5078728;28;20198;-81
2023/11/28 10:12:53;;;;;;;4.20;2.20;;;0.60;1.00;;;;;;5079538;28;20214;-82
2023/11/28 10:15:21;;;;;;;4.07;2.37;;;0.90;1.00;;;;;;5074355;28;20290;-80
2023/11/28 10:17:48;;;;;;;4.93;2.60;;;0.80;1.00;;;;;;5076392;28;20229;-81
2023/11/28 10:20:16;;;;;;;3.97;2.20;;;0.70;1.00;;;;;;5074472;28;20198;-81
2023/11/28 10:22:51;;;;;;;3.87;2.30;;;0.60;1.00;;;;;;5078227;28;20297;-79
2023/11/28 10:25:19;;;;;;;5.03;2.50;;;0.70;1.00;;;;;;5074382;28;20194;-82
2023/11/28 10:27:49;;;;;;;3.93;2.30;;;0.70;1.00;;;;;;5080572;28;20233;-82
2023/11/28 10:30:21;;;;;;;4.67;1.97;;;0.60;1.00;;;;;;5070872;28;20616;-80
2023/11/28 10:32:47;;;;;;;2.70;2.13;;;0.60;1.00;;;;;;5071819;28;20203;-79
2023/11/28 10:35:15;;;;;;;3.77;2.83;;;0.80;1.00;;;;;;5075863;28;20218;-80
2023/11/28 10:37:42;;;;;;;5.53;3.03;;;0.90;1.00;;;;;;5069051;28;20231;-79
2023/11/28 10:40:13;;;;;;;5.00;2.70;;;0.90;1.00;;;;;;5069843;28;20203;-78
2023/11/28 10:42:41;;;;;;;5.00;2.63;;;0.80;1.00;;;;;;5072605;28;20209;-82
2023/11/28 10:45:10;;;;;;;5.67;2.80;;;0.80;1.00;;;;;;5067737;28;20320;-82
2023/11/28 10:47:39;;;;;;;5.30;3.10;;;1.00;1.00;;;;;;5070494;28;20587;-81
2023/11/28 10:50:08;;;;;;;4.60;3.10;;;0.80;1.00;;;;;;5066603;28;20202;-81
2023/11/28 10:52:39;;;;;;;4.53;2.53;;;0.70;1.00;;;;;;5075264;28;20584;-80
2023/11/28 10:55:09;;;;;;;4.53;2.93;;;0.70;1.00;;;;;;5079678;28;20234;-80
2023/11/28 10:57:46;;;;;;;5.70;3.10;;;0.60;1.00;;;;;;5086530;28;20264;-81
2023/11/28 11:00:20;;;;;;;6.60;2.90;;;0.80;99.90;;;;;;5077309;28;20213;-81
2023/11/28 11:02:47;;;;;;;6.10;3.50;;;0.80;1.00;;;;;;5078393;28;20190;-80
2023/11/28 11:05:15;;;;;;;4.77;3.50;;;0.80;1.00;;;;;;5077885;28;20202;-80
2023/11/28 11:07:43;;;;;;;4.23;3.00;;;0.80;42.80;;;;;;5080066;28;20230;-82
2023/11/28 11:10:11;;;;;;;5.00;3.30;;;0.70;1.00;;;;;;5077851;28;20211;-81
2023/11/28 11:12:40;;;;;;;5.47;3.20;;;0.90;1.00;;;;;;5078497;28;20570;-82
2023/11/28 11:15:15;;;;;;;3.60;2.73;;;0.80;1.00;;;;;;5079738;28;20590;-81
2023/11/28 11:17:59;;;;;;;7.33;3.53;;;0.90;1.00;;;;;;5078474;28;20653;-82
2023/11/28 11:20:28;;;;;;;4.17;3.20;;;0.60;1.00;;;;;;5074026;28;20207;-82
2023/11/28 11:23:00;;;;;;;4.67;3.27;;;0.60;1.00;;;;;;5072862;28;20210;-80
2023/11/28 11:25:29;;;;;;;5.07;3.33;;;0.60;1.00;;;;;;5072529;28;20209;-78
2023/11/28 11:27:56;;;;;;;3.07;2.73;;;0.70;1.00;;;;;;5079106;28;20249;-81
2023/11/28 11:30:33;;;;;;;3.97;2.50;;;0.50;1.00;;;;;;5073529;28;20202;-81
2023/11/28 11:33:01;;;;;;;5.20;3.30;;;0.60;1.00;;;;;;5077896;28;20206;-80
2023/11/28 11:35:31;;;;;;;4.47;2.77;;;0.70;1.00;;;;;;5076786;28;20221;-80
2023/11/28 11:37:58;;;;;;;3.73;2.70;;;0.60;1.00;;;;;;5072377;28;20997;-80
2023/11/28 11:40:25;;;;;;;5.80;3.10;;;0.50;1.00;;;;;;5074333;28;20202;-80
2023/11/28 11:42:52;;;;;;;3.67;3.00;;;0.50;1.00;;;;;;5077383;28;20598;-80
2023/11/28 11:45:20;;;;;;;4.80;2.77;;;0.50;1.00;;;;;;5073775;28;20222;-82
2023/11/28 11:47:48;;;;;;;4.07;2.67;;;0.80;1.00;;;;;;5070070;28;20725;-82
2023/11/28 11:50:19;;;;;;;3.87;2.70;;;1.20;1.00;;;;;;5080503;28;20678;-81
2023/11/28 11:52:46;;;;;;;3.60;3.07;;;0.80;1.00;;;;;;5074521;28;20677;-82
2023/11/28 11:55:15;;;;;;;3.63;2.97;;;0.80;1.00;;;;;;5073023;28;20222;-81
2023/11/28 11:57:43;;;;;;;4.90;3.23;;;0.80;1.00;;;;;;5066525;28;20223;-82
2023/11/28 12:00:11;;;;;;;5.07;3.03;;;0.80;1.00;;;;;;5076065;28;20917;-80
2023/11/28 12:02:40;;;;;;;5.07;3.63;;;0.90;1.00;;;;;;5071867;28;20210;-81
2023/11/28 12:05:08;;;;;;;5.47;3.83;;;1.00;1.00;;;;;;5072019;28;20651;-81
2023/11/28 12:07:38;;;;;;;4.50;3.73;;;1.00;1.00;;;;;;5071778;28;20674;-81
2023/11/28 12:10:07;;;;;;;6.70;3.97;;;1.00;1.00;;;;;;5079469;28;20217;-79
2023/11/28 12:12:34;;;;;;;5.60;3.23;;;1.00;1.00;;;;;;5068048;28;20683;-78
2023/11/28 12:15:01;;;;;;;5.00;3.20;;;1.10;1.00;;;;;;5073210;28;20226;-81
2023/11/28 12:17:27;;;;;;;5.60;3.10;;;0.90;1.00;;;;;;5076258;28;20210;-79
2023/11/28 12:19:55;;;;;;;8.30;3.50;;;0.90;1.00;;;;;;5074888;28;20606;-81
2023/11/28 12:22:22;;;;;;;5.07;3.33;;;0.90;1.00;;;;;;5070862;28;20205;-80
2023/11/28 12:24:51;;;;;;;4.30;3.27;;;0.90;1.00;;;;;;5073957;28;20290;-79
2023/11/28 12:27:19;;;;;;;3.87;3.20;;;0.90;1.00;;;;;;5070820;28;20335;-80
2023/11/28 12:29:48;;;;;;;5.40;3.17;;;1.10;1.00;;;;;;5087539;28;20252;-80
2023/11/28 12:32:15;;;;;;;4.23;3.53;;;1.00;1.00;;;;;;5081395;28;20222;-80
2023/11/28 12:34:43;;;;;;;5.23;3.20;;;1.10;1.00;;;;;;5079621;28;20249;-80
2023/11/28 12:37:10;;;;;;;4.13;3.00;;;1.00;1.00;;;;;;5072464;28;20244;-78
2023/11/28 12:39:39;;;;;;;5.53;3.67;;;1.20;1.00;;;;;;5082065;28;20260;-80
2023/11/28 12:42:07;;;;;;;4.97;3.53;;;1.20;1.00;;;;;;5080835;28;20213;-79
2023/11/28 12:44:36;;;;;;;7.03;3.80;;;1.10;1.00;;;;;;5081245;28;20298;-80
2023/11/28 12:47:04;;;;;;;8.13;3.97;;;1.10;1.00;;;;;;5082647;28;20281;-78
2023/11/28 12:49:34;;;;;;;5.43;4.07;;;1.10;15.60;;;;;;5075635;28;20219;-81
2023/11/28 12:52:02;;;;;;;10.53;4.80;;;1.20;1.00;;;;;;5079747;28;20262;-81
2023/11/28 12:54:29;;;;;;;8.60;5.00;;;1.20;14.80;;;;;;5078867;28;20309;-81